ZSU Weather Center

Puerto Rico


TJSJ 061156Z 11008KT 10SM -RA SCT022 SCT050 SCT090 28/24 A3004 RMK AO2 RAB54 SLP171 P0000 60002 70003 T02830244 10283 20267 53010

TJBQ 061150Z 10006KT 10SM CLR A3005

TJIG 061152Z 11009KT 10SM SCT030 BKN080 29/24 A3003

TJMZ 101550Z 11009KT 10SM SCT050 33/24

TJPS 310650Z 00000KT 8SM SCT020 BKN030 22/22 A3001

 

St. Maarten


TNCM 061200Z 07009KT 040V110 9999 SCT018 30/24 Q1017 NOSIG

 

St. Thomas USVI


TIST 061153Z 07010KT 10SM CLR 31/23 A3002 RMK AO2 SLP165 T03060233 10306 20278 53007

 

St. Croix USVI


TISX 061153Z 05013KT 10SM FEW025 30/23 A3002 RMK AO2 SLP163 T03000233 10300 20272 53007

 

Anguilla BVI


TQPF 061200Z 08012KT 9999 BKN019 28/23 Q1017

 

Beef Island BVI


TUPJ 061200Z 07009KT 10SM SCT019 30/25 A3003 RMK Q1017 VIS16KM

 

Sint Eustatius


METAR not Available.

 

 

 

Puerto Rico


TAF TJSJ 061122Z 0612/0712 10008KT P6SM VCSH SCT025 SCT050 FM061400 06015KT P6SM FEW030 SCT050 FM061600 06019G26KT P6SM VCSH SCT025 SCT050 FM062200 08014KT P6SM FEW030 SCT050

TAF TJBQ 061122Z 0612/0712 VRB03KT P6SM FEW025 FM061400 08015KT P6SM FEW025 FM061700 07019G26KT P6SM VCTS SCT030CB BKN050 FM062200 09009KT P6SM FEW030 SCT050 AMD NOT SKED 0702/0711

TAF TJPS 061122Z 0612/0712 06004KT P6SM FEW030 FM061400 13015G22KT P6SM FEW030 SCT050 FM062200 11013KT P6SM FEW030 FEW050 FM070200 07004KT P6SM FEW030 FEW050

 

St. Maarten


TAF TNCM 061122Z 0612/0712 07013KT P6SM VCSH SCT018

 

St. Thomas USVI


TAF TIST 061122Z 0612/0712 08010KT P6SM VCSH FEW030 FM061400 10012KT P6SM VCSH FEW025 SCT050 FM062200 08010KT P6SM FEW030 SCT050

 

St. Croix USVI


TAF TISX 061122Z 0612/0712 06009KT P6SM VCSH FEW030 FM061400 09014KT P6SM VCSH FEW030 SCT050 FM062300 07010KT P6SM FEW030 SCT050

 

Anguilla BVI


TAF AMD TQPF 060123Z 0518/0618 CNL

 

Beef Island BVI


TAF AMD TUPJ 060123Z 0518/0618 CNL

 

Composite Reflectivity


 

 

Caribbean Surface Analysis